sensor_id;sensor_type;location;lat;lon;timestamp;P1;durP1;ratioP1;P2;durP2;ratioP2
9860;SDS011;4969;52.304;4.968;2022-11-15T00:02:16;31.13;;;24.60;;
9860;SDS011;4969;52.304;4.968;2022-11-15T00:04:42;30.90;;;23.98;;
9860;SDS011;4969;52.304;4.968;2022-11-15T00:07:09;29.15;;;23.65;;
9860;SDS011;4969;52.304;4.968;2022-11-15T00:09:36;29.27;;;23.48;;
9860;SDS011;4969;52.304;4.968;2022-11-15T00:12:04;31.92;;;24.30;;
9860;SDS011;4969;52.304;4.968;2022-11-15T00:14:31;31.73;;;25.02;;
9860;SDS011;4969;52.304;4.968;2022-11-15T00:16:57;30.55;;;24.23;;
9860;SDS011;4969;52.304;4.968;2022-11-15T00:19:24;32.30;;;26.08;;
9860;SDS011;4969;52.304;4.968;2022-11-15T00:21:52;31.92;;;26.30;;
9860;SDS011;4969;52.304;4.968;2022-11-15T00:24:18;36.07;;;25.53;;
9860;SDS011;4969;52.304;4.968;2022-11-15T00:26:45;35.22;;;25.80;;
9860;SDS011;4969;52.304;4.968;2022-11-15T00:29:13;34.85;;;25.90;;
9860;SDS011;4969;52.304;4.968;2022-11-15T00:31:39;36.03;;;27.20;;
9860;SDS011;4969;52.304;4.968;2022-11-15T00:34:06;35.28;;;26.05;;
9860;SDS011;4969;52.304;4.968;2022-11-15T00:36:33;37.15;;;25.98;;
9860;SDS011;4969;52.304;4.968;2022-11-15T00:39:00;34.03;;;26.08;;
9860;SDS011;4969;52.304;4.968;2022-11-15T00:41:26;35.88;;;27.65;;
9860;SDS011;4969;52.304;4.968;2022-11-15T00:43:53;33.88;;;25.75;;
9860;SDS011;4969;52.304;4.968;2022-11-15T00:46:21;34.53;;;26.98;;
9860;SDS011;4969;52.304;4.968;2022-11-15T00:48:48;34.05;;;26.67;;
9860;SDS011;4969;52.304;4.968;2022-11-15T00:51:14;42.00;;;31.23;;
9860;SDS011;4969;52.304;4.968;2022-11-15T00:53:41;43.03;;;33.03;;
9860;SDS011;4969;52.304;4.968;2022-11-15T00:56:07;48.08;;;34.10;;
9860;SDS011;4969;52.304;4.968;2022-11-15T00:58:34;47.95;;;36.75;;
9860;SDS011;4969;52.304;4.968;2022-11-15T01:01:08;49.45;;;36.25;;
9860;SDS011;4969;52.304;4.968;2022-11-15T01:03:37;52.97;;;42.03;;
9860;SDS011;4969;52.304;4.968;2022-11-15T01:06:04;42.63;;;32.30;;
9860;SDS011;4969;52.304;4.968;2022-11-15T01:08:31;61.88;;;48.22;;
9860;SDS011;4969;52.304;4.968;2022-11-15T01:11:00;62.25;;;47.25;;
9860;SDS011;4969;52.304;4.968;2022-11-15T01:13:29;61.75;;;48.78;;
9860;SDS011;4969;52.304;4.968;2022-11-15T01:15:56;51.38;;;38.72;;
9860;SDS011;4969;52.304;4.968;2022-11-15T01:18:22;64.65;;;49.85;;
9860;SDS011;4969;52.304;4.968;2022-11-15T01:20:50;62.15;;;45.30;;
9860;SDS011;4969;52.304;4.968;2022-11-15T01:23:17;78.82;;;63.97;;
9860;SDS011;4969;52.304;4.968;2022-11-15T01:25:43;68.03;;;53.30;;
9860;SDS011;4969;52.304;4.968;2022-11-15T01:28:10;74.93;;;58.92;;
9860;SDS011;4969;52.304;4.968;2022-11-15T01:30:37;72.63;;;51.83;;
9860;SDS011;4969;52.304;4.968;2022-11-15T01:33:03;76.45;;;59.95;;
9860;SDS011;4969;52.304;4.968;2022-11-15T01:35:30;67.68;;;52.35;;
9860;SDS011;4969;52.304;4.968;2022-11-15T01:37:58;81.20;;;60.70;;
9860;SDS011;4969;52.304;4.968;2022-11-15T01:40:24;76.80;;;58.78;;
9860;SDS011;4969;52.304;4.968;2022-11-15T01:42:51;70.22;;;55.90;;
9860;SDS011;4969;52.304;4.968;2022-11-15T01:45:17;72.45;;;53.72;;
9860;SDS011;4969;52.304;4.968;2022-11-15T01:47:44;81.47;;;60.67;;
9860;SDS011;4969;52.304;4.968;2022-11-15T01:50:15;74.35;;;57.90;;
9860;SDS011;4969;52.304;4.968;2022-11-15T01:52:45;77.90;;;58.30;;
9860;SDS011;4969;52.304;4.968;2022-11-15T01:55:14;98.22;;;77.10;;
9860;SDS011;4969;52.304;4.968;2022-11-15T01:57:44;71.25;;;52.85;;
9860;SDS011;4969;52.304;4.968;2022-11-15T02:00:13;82.07;;;62.17;;
9860;SDS011;4969;52.304;4.968;2022-11-15T02:02:40;77.82;;;60.83;;
9860;SDS011;4969;52.304;4.968;2022-11-15T02:05:07;76.70;;;57.92;;
9860;SDS011;4969;52.304;4.968;2022-11-15T02:07:34;78.45;;;58.95;;
9860;SDS011;4969;52.304;4.968;2022-11-15T02:10:03;76.38;;;61.00;;
9860;SDS011;4969;52.304;4.968;2022-11-15T02:12:34;76.97;;;57.13;;
9860;SDS011;4969;52.304;4.968;2022-11-15T02:15:01;87.85;;;68.15;;
9860;SDS011;4969;52.304;4.968;2022-11-15T02:17:32;74.75;;;58.65;;
9860;SDS011;4969;52.304;4.968;2022-11-15T02:20:14;74.20;;;60.25;;
9860;SDS011;4969;52.304;4.968;2022-11-15T02:23:21;78.95;;;60.47;;
9860;SDS011;4969;52.304;4.968;2022-11-15T02:26:08;65.63;;;49.75;;
9860;SDS011;4969;52.304;4.968;2022-11-15T02:28:50;76.75;;;58.03;;
9860;SDS011;4969;52.304;4.968;2022-11-15T02:31:27;79.95;;;61.05;;
9860;SDS011;4969;52.304;4.968;2022-11-15T02:33:59;78.38;;;60.13;;
9860;SDS011;4969;52.304;4.968;2022-11-15T02:36:34;69.82;;;54.45;;
9860;SDS011;4969;52.304;4.968;2022-11-15T02:39:07;75.55;;;57.42;;
9860;SDS011;4969;52.304;4.968;2022-11-15T02:41:47;80.18;;;63.28;;
9860;SDS011;4969;52.304;4.968;2022-11-15T02:44:18;91.93;;;76.35;;
9860;SDS011;4969;52.304;4.968;2022-11-15T02:46:51;80.57;;;57.20;;
9860;SDS011;4969;52.304;4.968;2022-11-15T02:49:39;87.55;;;63.95;;
9860;SDS011;4969;52.304;4.968;2022-11-15T02:52:07;80.20;;;60.10;;
9860;SDS011;4969;52.304;4.968;2022-11-15T02:54:33;74.90;;;57.45;;
9860;SDS011;4969;52.304;4.968;2022-11-15T02:57:02;75.20;;;59.83;;
9860;SDS011;4969;52.304;4.968;2022-11-15T02:59:44;67.28;;;51.70;;
9860;SDS011;4969;52.304;4.968;2022-11-15T03:02:31;63.92;;;49.30;;
9860;SDS011;4969;52.304;4.968;2022-11-15T03:05:09;77.13;;;60.88;;
9860;SDS011;4969;52.304;4.968;2022-11-15T03:07:46;80.60;;;60.95;;
9860;SDS011;4969;52.304;4.968;2022-11-15T03:10:20;77.55;;;60.33;;
9860;SDS011;4969;52.304;4.968;2022-11-15T03:12:51;79.18;;;64.80;;
9860;SDS011;4969;52.304;4.968;2022-11-15T03:15:23;68.60;;;54.60;;
9860;SDS011;4969;52.304;4.968;2022-11-15T03:17:57;73.10;;;51.80;;
9860;SDS011;4969;52.304;4.968;2022-11-15T03:20:28;71.18;;;58.15;;
9860;SDS011;4969;52.304;4.968;2022-11-15T03:22:56;66.68;;;50.08;;
9860;SDS011;4969;52.304;4.968;2022-11-15T03:25:27;66.15;;;52.08;;
9860;SDS011;4969;52.304;4.968;2022-11-15T03:27:56;63.00;;;47.75;;
9860;SDS011;4969;52.304;4.968;2022-11-15T03:30:25;68.82;;;53.50;;
9860;SDS011;4969;52.304;4.968;2022-11-15T03:32:53;63.40;;;50.58;;
9860;SDS011;4969;52.304;4.968;2022-11-15T03:35:24;66.63;;;52.20;;
9860;SDS011;4969;52.304;4.968;2022-11-15T03:37:54;57.22;;;44.58;;
9860;SDS011;4969;52.304;4.968;2022-11-15T03:40:24;68.60;;;53.05;;
9860;SDS011;4969;52.304;4.968;2022-11-15T03:42:58;66.97;;;51.35;;
9860;SDS011;4969;52.304;4.968;2022-11-15T03:45:31;65.47;;;52.88;;
9860;SDS011;4969;52.304;4.968;2022-11-15T03:48:02;66.68;;;52.83;;
9860;SDS011;4969;52.304;4.968;2022-11-15T03:50:37;61.72;;;45.88;;
9860;SDS011;4969;52.304;4.968;2022-11-15T03:53:04;61.28;;;48.28;;
9860;SDS011;4969;52.304;4.968;2022-11-15T03:55:31;48.40;;;37.30;;
9860;SDS011;4969;52.304;4.968;2022-11-15T03:57:59;61.45;;;48.40;;
9860;SDS011;4969;52.304;4.968;2022-11-15T04:00:26;63.92;;;48.03;;
9860;SDS011;4969;52.304;4.968;2022-11-15T04:02:53;35.45;;;27.90;;
9860;SDS011;4969;52.304;4.968;2022-11-15T04:05:20;52.05;;;40.22;;
9860;SDS011;4969;52.304;4.968;2022-11-15T04:07:48;51.83;;;40.78;;
9860;SDS011;4969;52.304;4.968;2022-11-15T04:10:15;48.63;;;38.40;;
9860;SDS011;4969;52.304;4.968;2022-11-15T04:12:42;52.45;;;40.25;;
9860;SDS011;4969;52.304;4.968;2022-11-15T04:15:12;49.63;;;37.00;;
9860;SDS011;4969;52.304;4.968;2022-11-15T04:17:41;55.55;;;43.28;;
9860;SDS011;4969;52.304;4.968;2022-11-15T04:20:10;52.47;;;41.40;;
9860;SDS011;4969;52.304;4.968;2022-11-15T04:22:58;41.30;;;32.42;;
9860;SDS011;4969;52.304;4.968;2022-11-15T04:25:58;32.67;;;26.13;;
9860;SDS011;4969;52.304;4.968;2022-11-15T04:28:27;32.70;;;26.50;;
9860;SDS011;4969;52.304;4.968;2022-11-15T04:30:54;43.22;;;34.20;;
9860;SDS011;4969;52.304;4.968;2022-11-15T04:33:21;47.47;;;37.22;;
9860;SDS011;4969;52.304;4.968;2022-11-15T04:35:48;39.55;;;31.88;;
9860;SDS011;4969;52.304;4.968;2022-11-15T04:38:29;40.22;;;32.65;;
9860;SDS011;4969;52.304;4.968;2022-11-15T04:40:56;39.22;;;31.80;;
9860;SDS011;4969;52.304;4.968;2022-11-15T04:43:23;37.60;;;30.67;;
9860;SDS011;4969;52.304;4.968;2022-11-15T04:45:49;39.55;;;32.60;;
9860;SDS011;4969;52.304;4.968;2022-11-15T04:48:16;37.92;;;30.73;;
9860;SDS011;4969;52.304;4.968;2022-11-15T04:50:42;33.17;;;28.08;;
9860;SDS011;4969;52.304;4.968;2022-11-15T04:53:09;29.67;;;22.85;;
9860;SDS011;4969;52.304;4.968;2022-11-15T04:55:37;29.98;;;26.13;;
9860;SDS011;4969;52.304;4.968;2022-11-15T04:58:03;33.05;;;27.17;;
9860;SDS011;4969;52.304;4.968;2022-11-15T05:00:30;31.15;;;26.38;;
9860;SDS011;4969;52.304;4.968;2022-11-15T05:02:57;34.50;;;29.02;;
9860;SDS011;4969;52.304;4.968;2022-11-15T05:05:41;33.30;;;27.70;;
9860;SDS011;4969;52.304;4.968;2022-11-15T05:08:08;29.35;;;25.65;;
9860;SDS011;4969;52.304;4.968;2022-11-15T05:10:34;35.75;;;29.65;;
9860;SDS011;4969;52.304;4.968;2022-11-15T05:13:02;26.42;;;22.88;;
9860;SDS011;4969;52.304;4.968;2022-11-15T05:15:29;27.88;;;24.90;;
9860;SDS011;4969;52.304;4.968;2022-11-15T05:17:57;28.80;;;25.65;;
9860;SDS011;4969;52.304;4.968;2022-11-15T05:20:24;31.35;;;27.92;;
9860;SDS011;4969;52.304;4.968;2022-11-15T05:22:50;29.25;;;25.10;;
9860;SDS011;4969;52.304;4.968;2022-11-15T05:25:18;31.67;;;28.20;;
9860;SDS011;4969;52.304;4.968;2022-11-15T05:27:45;25.83;;;21.85;;
9860;SDS011;4969;52.304;4.968;2022-11-15T05:30:13;29.08;;;25.70;;
9860;SDS011;4969;52.304;4.968;2022-11-15T05:32:40;22.63;;;19.25;;
9860;SDS011;4969;52.304;4.968;2022-11-15T05:35:08;27.65;;;24.17;;
9860;SDS011;4969;52.304;4.968;2022-11-15T05:37:38;27.60;;;23.23;;
9860;SDS011;4969;52.304;4.968;2022-11-15T05:40:05;25.33;;;22.40;;
9860;SDS011;4969;52.304;4.968;2022-11-15T05:42:32;27.13;;;23.50;;
9860;SDS011;4969;52.304;4.968;2022-11-15T05:44:59;22.23;;;18.45;;
9860;SDS011;4969;52.304;4.968;2022-11-15T05:47:29;23.35;;;19.42;;
9860;SDS011;4969;52.304;4.968;2022-11-15T05:49:56;24.17;;;20.63;;
9860;SDS011;4969;52.304;4.968;2022-11-15T05:52:24;20.83;;;18.35;;
9860;SDS011;4969;52.304;4.968;2022-11-15T05:54:54;17.92;;;15.05;;
9860;SDS011;4969;52.304;4.968;2022-11-15T05:57:22;18.83;;;16.13;;
9860;SDS011;4969;52.304;4.968;2022-11-15T05:59:50;18.27;;;15.98;;
9860;SDS011;4969;52.304;4.968;2022-11-15T06:02:17;17.63;;;14.75;;
9860;SDS011;4969;52.304;4.968;2022-11-15T06:04:45;19.95;;;15.55;;
9860;SDS011;4969;52.304;4.968;2022-11-15T06:07:11;17.83;;;15.57;;
9860;SDS011;4969;52.304;4.968;2022-11-15T06:09:38;16.73;;;14.27;;
9860;SDS011;4969;52.304;4.968;2022-11-15T06:12:05;17.05;;;14.88;;
9860;SDS011;4969;52.304;4.968;2022-11-15T06:14:33;16.38;;;14.60;;
9860;SDS011;4969;52.304;4.968;2022-11-15T06:16:59;16.20;;;14.50;;
9860;SDS011;4969;52.304;4.968;2022-11-15T06:19:26;16.50;;;14.00;;
9860;SDS011;4969;52.304;4.968;2022-11-15T06:21:59;16.23;;;14.15;;
9860;SDS011;4969;52.304;4.968;2022-11-15T06:24:25;15.05;;;13.18;;
9860;SDS011;4969;52.304;4.968;2022-11-15T06:26:52;15.73;;;13.95;;
9860;SDS011;4969;52.304;4.968;2022-11-15T06:29:19;14.60;;;13.07;;
9860;SDS011;4969;52.304;4.968;2022-11-15T06:31:45;14.10;;;12.60;;
9860;SDS011;4969;52.304;4.968;2022-11-15T06:34:12;18.33;;;13.68;;
9860;SDS011;4969;52.304;4.968;2022-11-15T06:36:39;13.70;;;12.30;;
9860;SDS011;4969;52.304;4.968;2022-11-15T06:39:07;14.35;;;12.60;;
9860;SDS011;4969;52.304;4.968;2022-11-15T06:41:33;13.95;;;12.27;;
9860;SDS011;4969;52.304;4.968;2022-11-15T06:44:00;13.63;;;12.20;;
9860;SDS011;4969;52.304;4.968;2022-11-15T06:46:27;14.10;;;12.57;;
9860;SDS011;4969;52.304;4.968;2022-11-15T06:48:54;13.50;;;12.10;;
9860;SDS011;4969;52.304;4.968;2022-11-15T06:51:20;14.70;;;12.65;;
9860;SDS011;4969;52.304;4.968;2022-11-15T06:53:47;14.00;;;12.02;;
9860;SDS011;4969;52.304;4.968;2022-11-15T06:56:15;13.15;;;11.77;;
9860;SDS011;4969;52.304;4.968;2022-11-15T06:58:41;13.55;;;11.30;;
9860;SDS011;4969;52.304;4.968;2022-11-15T07:01:09;14.88;;;12.75;;
9860;SDS011;4969;52.304;4.968;2022-11-15T07:03:37;12.63;;;11.40;;
9860;SDS011;4969;52.304;4.968;2022-11-15T07:06:05;12.68;;;11.35;;
9860;SDS011;4969;52.304;4.968;2022-11-15T07:08:33;13.80;;;12.25;;
9860;SDS011;4969;52.304;4.968;2022-11-15T07:11:00;12.77;;;10.30;;
9860;SDS011;4969;52.304;4.968;2022-11-15T07:13:29;15.73;;;11.27;;
9860;SDS011;4969;52.304;4.968;2022-11-15T07:15:58;13.80;;;11.13;;
9860;SDS011;4969;52.304;4.968;2022-11-15T07:18:27;12.88;;;11.57;;
9860;SDS011;4969;52.304;4.968;2022-11-15T07:20:54;13.13;;;11.70;;
9860;SDS011;4969;52.304;4.968;2022-11-15T07:23:21;15.38;;;11.63;;
9860;SDS011;4969;52.304;4.968;2022-11-15T07:25:48;12.10;;;10.80;;
9860;SDS011;4969;52.304;4.968;2022-11-15T07:28:15;15.70;;;11.75;;
9860;SDS011;4969;52.304;4.968;2022-11-15T07:30:43;11.45;;;10.25;;
9860;SDS011;4969;52.304;4.968;2022-11-15T07:33:13;13.05;;;11.52;;
9860;SDS011;4969;52.304;4.968;2022-11-15T07:35:39;12.40;;;10.15;;
9860;SDS011;4969;52.304;4.968;2022-11-15T07:38:07;10.68;;;9.55;;
9860;SDS011;4969;52.304;4.968;2022-11-15T07:40:34;11.07;;;10.00;;
9860;SDS011;4969;52.304;4.968;2022-11-15T07:43:01;12.70;;;10.73;;
9860;SDS011;4969;52.304;4.968;2022-11-15T07:45:29;10.77;;;9.77;;
9860;SDS011;4969;52.304;4.968;2022-11-15T07:47:57;11.63;;;9.65;;
9860;SDS011;4969;52.304;4.968;2022-11-15T07:50:24;11.80;;;9.70;;
9860;SDS011;4969;52.304;4.968;2022-11-15T07:52:54;10.70;;;9.57;;
9860;SDS011;4969;52.304;4.968;2022-11-15T07:55:21;10.52;;;9.30;;
9860;SDS011;4969;52.304;4.968;2022-11-15T07:57:48;10.38;;;9.23;;
9860;SDS011;4969;52.304;4.968;2022-11-15T08:00:15;10.52;;;9.40;;
9860;SDS011;4969;52.304;4.968;2022-11-15T08:02:43;11.95;;;9.00;;
9860;SDS011;4969;52.304;4.968;2022-11-15T08:05:11;11.32;;;9.55;;
9860;SDS011;4969;52.304;4.968;2022-11-15T08:07:38;12.02;;;9.45;;
9860;SDS011;4969;52.304;4.968;2022-11-15T08:10:05;11.95;;;10.02;;
9860;SDS011;4969;52.304;4.968;2022-11-15T08:12:33;10.88;;;9.57;;
9860;SDS011;4969;52.304;4.968;2022-11-15T08:14:59;10.68;;;9.57;;
9860;SDS011;4969;52.304;4.968;2022-11-15T08:17:26;11.70;;;9.23;;
9860;SDS011;4969;52.304;4.968;2022-11-15T08:19:52;10.45;;;9.35;;
9860;SDS011;4969;52.304;4.968;2022-11-15T08:22:21;9.70;;;8.68;;
9860;SDS011;4969;52.304;4.968;2022-11-15T08:24:47;9.30;;;8.35;;
9860;SDS011;4969;52.304;4.968;2022-11-15T08:27:14;10.07;;;9.05;;
9860;SDS011;4969;52.304;4.968;2022-11-15T08:29:41;9.98;;;8.95;;
9860;SDS011;4969;52.304;4.968;2022-11-15T08:32:08;11.40;;;9.18;;
9860;SDS011;4969;52.304;4.968;2022-11-15T08:34:36;9.43;;;8.48;;
9860;SDS011;4969;52.304;4.968;2022-11-15T08:37:03;11.55;;;9.32;;
9860;SDS011;4969;52.304;4.968;2022-11-15T08:39:31;11.07;;;9.07;;
9860;SDS011;4969;52.304;4.968;2022-11-15T08:41:57;9.80;;;8.80;;
9860;SDS011;4969;52.304;4.968;2022-11-15T08:44:24;8.93;;;8.02;;
9860;SDS011;4969;52.304;4.968;2022-11-15T08:46:51;10.98;;;7.80;;
9860;SDS011;4969;52.304;4.968;2022-11-15T08:49:17;10.05;;;8.25;;
9860;SDS011;4969;52.304;4.968;2022-11-15T08:51:44;11.07;;;8.38;;
9860;SDS011;4969;52.304;4.968;2022-11-15T08:54:10;9.10;;;8.02;;
9860;SDS011;4969;52.304;4.968;2022-11-15T08:56:38;9.07;;;8.18;;
9860;SDS011;4969;52.304;4.968;2022-11-15T08:59:05;8.70;;;7.80;;
9860;SDS011;4969;52.304;4.968;2022-11-15T09:01:32;11.02;;;8.25;;
9860;SDS011;4969;52.304;4.968;2022-11-15T09:03:58;9.55;;;7.57;;
9860;SDS011;4969;52.304;4.968;2022-11-15T09:06:25;8.80;;;7.85;;
9860;SDS011;4969;52.304;4.968;2022-11-15T09:08:52;9.90;;;7.78;;
9860;SDS011;4969;52.304;4.968;2022-11-15T09:11:18;12.13;;;8.00;;
9860;SDS011;4969;52.304;4.968;2022-11-15T09:13:48;10.50;;;8.07;;
9860;SDS011;4969;52.304;4.968;2022-11-15T09:16:15;18.67;;;10.40;;
9860;SDS011;4969;52.304;4.968;2022-11-15T09:18:42;18.83;;;13.95;;
9860;SDS011;4969;52.304;4.968;2022-11-15T09:21:09;21.08;;;15.60;;
9860;SDS011;4969;52.304;4.968;2022-11-15T09:23:36;25.92;;;16.45;;
9860;SDS011;4969;52.304;4.968;2022-11-15T09:26:03;12.82;;;9.27;;
9860;SDS011;4969;52.304;4.968;2022-11-15T09:28:31;16.02;;;12.07;;
9860;SDS011;4969;52.304;4.968;2022-11-15T09:31:01;15.70;;;11.25;;
9860;SDS011;4969;52.304;4.968;2022-11-15T09:33:29;15.77;;;10.55;;
9860;SDS011;4969;52.304;4.968;2022-11-15T09:35:59;16.88;;;12.48;;
9860;SDS011;4969;52.304;4.968;2022-11-15T09:38:26;15.20;;;12.73;;
9860;SDS011;4969;52.304;4.968;2022-11-15T09:40:55;13.48;;;10.68;;
9860;SDS011;4969;52.304;4.968;2022-11-15T09:43:42;21.40;;;11.93;;
9860;SDS011;4969;52.304;4.968;2022-11-15T09:46:15;13.07;;;8.57;;
9860;SDS011;4969;52.304;4.968;2022-11-15T09:48:50;26.65;;;20.55;;
9860;SDS011;4969;52.304;4.968;2022-11-15T09:51:21;21.27;;;15.35;;
9860;SDS011;4969;52.304;4.968;2022-11-15T09:53:55;31.52;;;25.20;;
9860;SDS011;4969;52.304;4.968;2022-11-15T09:56:27;21.13;;;17.17;;
9860;SDS011;4969;52.304;4.968;2022-11-15T09:58:58;31.70;;;24.90;;
9860;SDS011;4969;52.304;4.968;2022-11-15T10:01:36;20.40;;;17.65;;
9860;SDS011;4969;52.304;4.968;2022-11-15T10:04:07;38.47;;;29.63;;
9860;SDS011;4969;52.304;4.968;2022-11-15T10:06:34;28.20;;;21.70;;
9860;SDS011;4969;52.304;4.968;2022-11-15T10:09:11;25.20;;;18.23;;
9860;SDS011;4969;52.304;4.968;2022-11-15T10:11:41;18.65;;;15.70;;
9860;SDS011;4969;52.304;4.968;2022-11-15T10:14:10;13.98;;;10.70;;
9860;SDS011;4969;52.304;4.968;2022-11-15T10:19:47;37.03;;;26.60;;
9860;SDS011;4969;52.304;4.968;2022-11-15T10:22:24;30.48;;;24.63;;
9860;SDS011;4969;52.304;4.968;2022-11-15T10:24:58;40.90;;;25.15;;
9860;SDS011;4969;52.304;4.968;2022-11-15T10:27:36;25.52;;;21.13;;
9860;SDS011;4969;52.304;4.968;2022-11-15T10:30:08;11.15;;;9.10;;
9860;SDS011;4969;52.304;4.968;2022-11-15T10:32:39;27.90;;;18.90;;
9860;SDS011;4969;52.304;4.968;2022-11-15T10:35:16;29.15;;;21.08;;
9860;SDS011;4969;52.304;4.968;2022-11-15T10:37:44;19.75;;;16.95;;
9860;SDS011;4969;52.304;4.968;2022-11-15T10:40:15;14.73;;;10.00;;
9860;SDS011;4969;52.304;4.968;2022-11-15T10:42:43;20.92;;;15.27;;
9860;SDS011;4969;52.304;4.968;2022-11-15T10:45:22;22.92;;;17.45;;
9860;SDS011;4969;52.304;4.968;2022-11-15T10:47:52;20.75;;;16.50;;
9860;SDS011;4969;52.304;4.968;2022-11-15T10:50:27;27.42;;;20.80;;
9860;SDS011;4969;52.304;4.968;2022-11-15T10:52:56;16.50;;;13.50;;
9860;SDS011;4969;52.304;4.968;2022-11-15T10:55:24;24.65;;;18.65;;
9860;SDS011;4969;52.304;4.968;2022-11-15T10:57:54;19.05;;;14.38;;
9860;SDS011;4969;52.304;4.968;2022-11-15T11:00:27;20.20;;;15.60;;
9860;SDS011;4969;52.304;4.968;2022-11-15T11:02:58;12.90;;;10.95;;
9860;SDS011;4969;52.304;4.968;2022-11-15T11:05:27;21.08;;;14.35;;
9860;SDS011;4969;52.304;4.968;2022-11-15T11:07:57;11.25;;;9.35;;
9860;SDS011;4969;52.304;4.968;2022-11-15T11:10:25;6.10;;;3.28;;
9860;SDS011;4969;52.304;4.968;2022-11-15T11:12:51;17.95;;;15.20;;
9860;SDS011;4969;52.304;4.968;2022-11-15T11:15:18;15.60;;;11.88;;
9860;SDS011;4969;52.304;4.968;2022-11-15T11:17:51;22.10;;;17.02;;
9860;SDS011;4969;52.304;4.968;2022-11-15T11:20:29;35.08;;;25.75;;
9860;SDS011;4969;52.304;4.968;2022-11-15T11:23:04;23.83;;;18.17;;
9860;SDS011;4969;52.304;4.968;2022-11-15T11:25:48;29.17;;;22.08;;
9860;SDS011;4969;52.304;4.968;2022-11-15T11:28:25;33.33;;;27.35;;
9860;SDS011;4969;52.304;4.968;2022-11-15T11:31:06;25.80;;;19.77;;
9860;SDS011;4969;52.304;4.968;2022-11-15T11:33:47;17.05;;;12.27;;
9860;SDS011;4969;52.304;4.968;2022-11-15T11:36:23;29.23;;;23.05;;
9860;SDS011;4969;52.304;4.968;2022-11-15T11:38:57;36.78;;;28.75;;
9860;SDS011;4969;52.304;4.968;2022-11-15T11:41:38;37.22;;;27.75;;
9860;SDS011;4969;52.304;4.968;2022-11-15T11:44:30;18.00;;;15.23;;
9860;SDS011;4969;52.304;4.968;2022-11-15T11:47:01;29.88;;;23.25;;
9860;SDS011;4969;52.304;4.968;2022-11-15T11:49:38;32.45;;;24.20;;
9860;SDS011;4969;52.304;4.968;2022-11-15T11:52:11;34.30;;;24.95;;
9860;SDS011;4969;52.304;4.968;2022-11-15T11:54:45;34.22;;;26.70;;
9860;SDS011;4969;52.304;4.968;2022-11-15T11:57:22;14.82;;;9.10;;
9860;SDS011;4969;52.304;4.968;2022-11-15T11:59:57;23.83;;;18.65;;
9860;SDS011;4969;52.304;4.968;2022-11-15T12:02:27;31.38;;;21.65;;
9860;SDS011;4969;52.304;4.968;2022-11-15T12:05:01;36.13;;;26.15;;
9860;SDS011;4969;52.304;4.968;2022-11-15T12:07:34;26.50;;;20.60;;
9860;SDS011;4969;52.304;4.968;2022-11-15T12:10:11;19.83;;;14.20;;
9860;SDS011;4969;52.304;4.968;2022-11-15T12:12:47;26.67;;;20.75;;
9860;SDS011;4969;52.304;4.968;2022-11-15T12:15:19;23.80;;;18.27;;
9860;SDS011;4969;52.304;4.968;2022-11-15T12:17:49;27.88;;;17.48;;
9860;SDS011;4969;52.304;4.968;2022-11-15T12:20:19;28.13;;;20.52;;
9860;SDS011;4969;52.304;4.968;2022-11-15T12:22:51;38.88;;;28.50;;
9860;SDS011;4969;52.304;4.968;2022-11-15T12:25:21;24.80;;;17.50;;
9860;SDS011;4969;52.304;4.968;2022-11-15T12:27:52;25.50;;;20.38;;
9860;SDS011;4969;52.304;4.968;2022-11-15T12:30:22;19.45;;;14.27;;
9860;SDS011;4969;52.304;4.968;2022-11-15T12:32:52;6.05;;;4.25;;
9860;SDS011;4969;52.304;4.968;2022-11-15T12:35:25;22.65;;;17.35;;
9860;SDS011;4969;52.304;4.968;2022-11-15T12:38:02;12.73;;;8.63;;
9860;SDS011;4969;52.304;4.968;2022-11-15T12:40:30;11.65;;;9.18;;
9860;SDS011;4969;52.304;4.968;2022-11-15T12:46:11;18.33;;;12.93;;
9860;SDS011;4969;52.304;4.968;2022-11-15T12:48:53;21.48;;;14.38;;
9860;SDS011;4969;52.304;4.968;2022-11-15T12:51:23;12.00;;;8.60;;
9860;SDS011;4969;52.304;4.968;2022-11-15T12:57:29;8.95;;;6.13;;
9860;SDS011;4969;52.304;4.968;2022-11-15T13:00:02;23.48;;;17.33;;
9860;SDS011;4969;52.304;4.968;2022-11-15T13:02:46;18.95;;;14.57;;
9860;SDS011;4969;52.304;4.968;2022-11-15T13:08:24;11.55;;;8.68;;
9860;SDS011;4969;52.304;4.968;2022-11-15T13:14:37;17.38;;;13.40;;
9860;SDS011;4969;52.304;4.968;2022-11-15T13:17:23;21.90;;;16.63;;
9860;SDS011;4969;52.304;4.968;2022-11-15T13:20:02;25.50;;;16.73;;
9860;SDS011;4969;52.304;4.968;2022-11-15T13:22:49;22.98;;;17.20;;
9860;SDS011;4969;52.304;4.968;2022-11-15T13:25:18;11.15;;;6.85;;
9860;SDS011;4969;52.304;4.968;2022-11-15T13:27:52;24.08;;;18.70;;
9860;SDS011;4969;52.304;4.968;2022-11-15T13:30:23;17.40;;;12.07;;
9860;SDS011;4969;52.304;4.968;2022-11-15T13:32:51;23.50;;;17.00;;
9860;SDS011;4969;52.304;4.968;2022-11-15T13:35:20;19.30;;;15.10;;
9860;SDS011;4969;52.304;4.968;2022-11-15T13:37:48;8.35;;;2.95;;
9860;SDS011;4969;52.304;4.968;2022-11-15T13:40:18;17.38;;;12.90;;
9860;SDS011;4969;52.304;4.968;2022-11-15T13:42:49;8.10;;;5.03;;
9860;SDS011;4969;52.304;4.968;2022-11-15T13:45:17;11.70;;;9.60;;
9860;SDS011;4969;52.304;4.968;2022-11-15T13:47:44;20.38;;;15.48;;
9860;SDS011;4969;52.304;4.968;2022-11-15T13:50:17;12.57;;;8.38;;
9860;SDS011;4969;52.304;4.968;2022-11-15T13:52:48;7.78;;;6.30;;
9860;SDS011;4969;52.304;4.968;2022-11-15T13:55:16;8.70;;;5.10;;
9860;SDS011;4969;52.304;4.968;2022-11-15T13:57:46;13.48;;;8.65;;
9860;SDS011;4969;52.304;4.968;2022-11-15T14:00:27;18.35;;;14.77;;
9860;SDS011;4969;52.304;4.968;2022-11-15T14:03:04;18.88;;;13.30;;
9860;SDS011;4969;52.304;4.968;2022-11-15T14:05:33;16.60;;;10.52;;
9860;SDS011;4969;52.304;4.968;2022-11-15T14:08:01;16.95;;;12.45;;
9860;SDS011;4969;52.304;4.968;2022-11-15T14:10:30;17.55;;;12.73;;
9860;SDS011;4969;52.304;4.968;2022-11-15T14:13:00;6.38;;;3.45;;
9860;SDS011;4969;52.304;4.968;2022-11-15T14:15:28;10.48;;;7.75;;
9860;SDS011;4969;52.304;4.968;2022-11-15T14:17:57;10.60;;;6.78;;
9860;SDS011;4969;52.304;4.968;2022-11-15T14:20:28;17.50;;;12.77;;
9860;SDS011;4969;52.304;4.968;2022-11-15T14:22:58;15.60;;;10.18;;
9860;SDS011;4969;52.304;4.968;2022-11-15T14:25:25;15.13;;;9.68;;
9860;SDS011;4969;52.304;4.968;2022-11-15T14:31:01;11.60;;;8.10;;
9860;SDS011;4969;52.304;4.968;2022-11-15T14:33:31;19.30;;;14.80;;
9860;SDS011;4969;52.304;4.968;2022-11-15T14:36:02;9.52;;;6.35;;
9860;SDS011;4969;52.304;4.968;2022-11-15T14:38:30;5.88;;;2.65;;
9860;SDS011;4969;52.304;4.968;2022-11-15T14:40:57;16.00;;;11.82;;
9860;SDS011;4969;52.304;4.968;2022-11-15T14:43:23;12.65;;;8.13;;
9860;SDS011;4969;52.304;4.968;2022-11-15T14:45:51;15.77;;;12.70;;
9860;SDS011;4969;52.304;4.968;2022-11-15T14:48:18;14.20;;;9.98;;
9860;SDS011;4969;52.304;4.968;2022-11-15T14:50:45;16.13;;;12.90;;
9860;SDS011;4969;52.304;4.968;2022-11-15T14:53:15;9.07;;;6.88;;
9860;SDS011;4969;52.304;4.968;2022-11-15T14:55:43;7.10;;;4.07;;
9860;SDS011;4969;52.304;4.968;2022-11-15T14:58:10;15.25;;;11.75;;
9860;SDS011;4969;52.304;4.968;2022-11-15T15:00:37;11.93;;;7.32;;
9860;SDS011;4969;52.304;4.968;2022-11-15T15:03:06;13.13;;;10.27;;
9860;SDS011;4969;52.304;4.968;2022-11-15T15:05:34;12.55;;;9.82;;
9860;SDS011;4969;52.304;4.968;2022-11-15T15:08:02;8.55;;;6.40;;
9860;SDS011;4969;52.304;4.968;2022-11-15T15:10:30;20.70;;;12.98;;
9860;SDS011;4969;52.304;4.968;2022-11-15T15:12:58;22.88;;;18.45;;
9860;SDS011;4969;52.304;4.968;2022-11-15T15:15:26;5.90;;;4.28;;
9860;SDS011;4969;52.304;4.968;2022-11-15T15:17:57;16.67;;;13.60;;
9860;SDS011;4969;52.304;4.968;2022-11-15T15:20:25;13.98;;;10.95;;
9860;SDS011;4969;52.304;4.968;2022-11-15T15:22:53;19.95;;;14.40;;
9860;SDS011;4969;52.304;4.968;2022-11-15T15:25:25;14.07;;;10.90;;
9860;SDS011;4969;52.304;4.968;2022-11-15T15:27:55;16.95;;;13.70;;